createdAt,value
2019-01-21T00:02:32.791Z,96388.59
2019-01-21T00:05:03.616Z,96383.86
2019-01-21T00:07:37.116Z,96385.00
2019-01-21T00:10:09.168Z,96383.86
2019-01-21T00:12:40.539Z,96387.64
2019-01-21T00:15:14.612Z,96385.19
2019-01-21T00:17:46.477Z,96386.00
2019-01-21T00:20:17.308Z,96381.13
2019-01-21T00:22:48.704Z,96387.32
2019-01-21T00:25:21.299Z,96389.12
2019-01-21T00:27:52.443Z,96389.26
2019-01-21T00:30:23.560Z,96391.23
2019-01-21T00:32:54.788Z,96386.34
2019-01-21T00:35:25.616Z,96383.56
2019-01-21T00:37:56.335Z,96387.16
2019-01-21T00:40:27.240Z,96388.62
2019-01-21T00:42:58.190Z,96389.77
2019-01-21T00:45:31.493Z,96384.05
2019-01-21T00:48:03.559Z,96384.54
2019-01-21T00:50:34.397Z,96390.58
2019-01-21T00:53:05.622Z,96388.48
2019-01-21T00:55:36.716Z,96387.80
2019-01-21T00:58:10.379Z,96393.02
2019-01-21T01:00:41.600Z,96388.80
2019-01-21T01:03:14.918Z,96388.64
2019-01-21T01:05:46.356Z,96390.75
2019-01-21T01:08:17.181Z,96396.77
2019-01-21T01:10:48.029Z,96393.02
2019-01-21T01:13:18.767Z,96391.41
2019-01-21T01:15:49.582Z,96399.07
2019-01-21T01:18:22.885Z,96405.58
2019-01-21T01:20:53.743Z,96401.98
2019-01-21T01:23:24.530Z,96406.55
2019-01-21T01:25:55.829Z,96404.75
2019-01-21T01:28:26.625Z,96410.77
2019-01-21T01:30:58.674Z,96408.16
2019-01-21T01:33:29.705Z,96407.16
2019-01-21T01:36:01.595Z,96407.13
2019-01-21T01:38:42.740Z,96413.84
2019-01-21T01:41:14.791Z,96407.61
2019-01-21T01:43:45.955Z,96413.16
2019-01-21T01:46:19.062Z,96414.26
2019-01-21T01:48:49.988Z,96410.32
2019-01-21T01:51:21.795Z,96408.53
2019-01-21T01:53:52.710Z,96410.14
2019-01-21T01:56:23.501Z,96402.95
2019-01-21T01:58:54.368Z,96410.27
2019-01-21T02:01:25.456Z,96410.60
2019-01-21T02:03:56.256Z,96411.23
2019-01-21T02:06:27.065Z,96412.84
2019-01-21T02:08:59.964Z,96411.39
2019-01-21T02:11:33.198Z,96411.54
2019-01-21T02:14:04.397Z,96412.48
2019-01-21T02:16:35.569Z,96408.56
2019-01-21T02:19:06.355Z,96418.80
2019-01-21T02:21:38.965Z,96417.31
2019-01-21T02:24:10.027Z,96411.11
2019-01-21T02:26:55.326Z,96408.80
2019-01-21T02:30:01.174Z,96413.18
2019-01-21T02:33:12.475Z,96412.03
2019-01-21T02:36:38.823Z,96411.46
2019-01-21T02:39:34.916Z,96418.44
2019-01-21T02:42:34.955Z,96413.09
2019-01-21T02:45:38.034Z,96414.84
2019-01-21T02:48:45.757Z,96414.83
2019-01-21T02:51:57.482Z,96405.03
2019-01-21T02:54:59.965Z,96406.53
2019-01-21T02:58:11.334Z,96407.98
2019-01-21T03:01:06.503Z,96403.06
2019-01-21T03:04:09.620Z,96405.77
2019-01-21T03:06:56.811Z,96403.15
2019-01-21T03:09:58.742Z,96403.87
2019-01-21T03:13:09.093Z,96403.05
2019-01-21T03:16:01.336Z,96405.92
2019-01-21T03:19:15.016Z,96403.62
2019-01-21T03:22:25.667Z,96405.50
2019-01-21T03:25:41.939Z,96401.45
2019-01-21T03:28:46.811Z,96412.80
2019-01-21T03:32:06.462Z,96413.96
2019-01-21T03:35:20.718Z,96414.38
2019-01-21T03:39:02.692Z,96415.58
2019-01-21T03:42:09.617Z,96418.25
2019-01-21T03:45:39.870Z,96413.17
2019-01-21T03:48:48.249Z,96410.37
2019-01-21T03:52:18.050Z,96411.59
2019-01-21T03:54:54.234Z,96419.86
2019-01-21T03:57:34.031Z,96415.20
2019-01-21T04:00:29.007Z,96411.30
2019-01-21T04:03:47.170Z,96414.80
2019-01-21T04:06:31.907Z,96406.64
2019-01-21T04:09:31.574Z,96411.58
2019-01-21T04:12:33.647Z,96410.25
2019-01-21T04:16:08.051Z,96404.52
2019-01-21T04:19:21.793Z,96408.55
2019-01-21T04:22:11.038Z,96405.86
2019-01-21T04:25:35.296Z,96411.03
2019-01-21T04:28:38.093Z,96410.19
2019-01-21T04:31:53.053Z,96409.64
2019-01-21T04:34:56.576Z,96409.61
2019-01-21T04:37:49.034Z,96410.84
2019-01-21T04:40:39.880Z,96408.48
2019-01-21T04:44:03.062Z,96404.38
2019-01-21T04:47:27.278Z,96401.78
2019-01-21T04:50:36.685Z,96404.89
2019-01-21T04:53:49.600Z,96408.47
2019-01-21T04:56:58.754Z,96407.69
2019-01-21T05:00:18.998Z,96413.97
2019-01-21T05:03:42.009Z,96415.80
2019-01-21T05:06:57.237Z,96410.98
2019-01-21T05:09:56.785Z,96420.02
2019-01-21T05:12:56.259Z,96421.41
2019-01-21T05:16:10.197Z,96417.83
2019-01-21T05:19:17.308Z,96418.21
2019-01-21T05:22:37.274Z,96416.83
2019-01-21T05:25:58.307Z,96419.77
2019-01-21T05:28:57.809Z,96422.94
2019-01-21T05:31:55.403Z,96419.25
2019-01-21T05:35:21.388Z,96413.59
2019-01-21T05:38:22.554Z,96416.37
2019-01-21T05:41:12.236Z,96416.87
2019-01-21T05:44:22.535Z,96415.31
2019-01-21T05:47:28.621Z,96415.91
2019-01-21T05:50:40.736Z,96410.47
2019-01-21T05:53:57.504Z,96417.26
2019-01-21T05:56:53.467Z,96420.16
2019-01-21T06:00:19.838Z,96419.25
2019-01-21T06:03:33.510Z,96424.43
2019-01-21T06:06:34.943Z,96425.87
2019-01-21T06:09:37.991Z,96425.44
2019-01-21T06:12:29.595Z,96426.92
2019-01-21T06:15:27.915Z,96424.23
2019-01-21T06:18:20.044Z,96423.95
2019-01-21T06:21:27.879Z,96426.42
2019-01-21T06:24:24.692Z,96424.50
2019-01-21T06:27:30.512Z,96425.16
2019-01-21T06:30:56.814Z,96434.17
2019-01-21T06:34:18.696Z,96430.34
2019-01-21T06:37:11.321Z,96435.03
2019-01-21T06:40:24.555Z,96434.66
2019-01-21T06:43:30.555Z,96440.77
2019-01-21T06:46:40.426Z,96443.13
2019-01-21T06:49:52.570Z,96448.47
2019-01-21T06:52:48.863Z,96449.83
2019-01-21T06:55:53.237Z,96456.05
2019-01-21T06:58:55.386Z,96452.91
2019-01-21T07:02:09.079Z,96454.89
2019-01-21T07:05:10.627Z,96450.33
2019-01-21T07:08:30.431Z,96463.19
2019-01-21T07:11:49.827Z,96459.66
2019-01-21T07:15:00.931Z,96456.67
2019-01-21T07:18:26.022Z,96457.27
2019-01-21T07:21:37.483Z,96457.50
2019-01-21T07:24:57.148Z,96449.92
2019-01-21T07:27:41.021Z,96452.61
2019-01-21T07:30:40.081Z,96455.97
2019-01-21T07:34:23.289Z,96456.31
2019-01-21T07:37:35.525Z,96450.96
2019-01-21T07:40:44.564Z,96458.50
2019-01-21T07:43:33.400Z,96452.67
2019-01-21T07:46:39.144Z,96452.59
2019-01-21T07:50:18.402Z,96451.64
2019-01-21T07:53:31.594Z,96452.73
2019-01-21T07:56:52.063Z,96459.64
2019-01-21T08:00:06.816Z,96464.23
2019-01-21T08:02:52.792Z,96456.95
2019-01-21T08:06:00.120Z,96456.83
2019-01-21T08:09:00.020Z,96458.22
2019-01-21T08:11:59.097Z,96457.40
2019-01-21T08:15:38.016Z,96456.98
2019-01-21T08:18:58.480Z,96453.90
2019-01-21T08:22:04.091Z,96447.45
2019-01-21T08:25:05.894Z,96450.34
2019-01-21T08:28:08.527Z,96449.91
2019-01-21T08:31:22.045Z,96452.84
2019-01-21T08:34:18.705Z,96449.62
2019-01-21T08:37:15.632Z,96446.43
2019-01-21T08:40:23.782Z,96446.58
2019-01-21T08:43:47.702Z,96446.91
2019-01-21T08:46:53.423Z,96457.60
2019-01-21T08:49:49.503Z,96458.13
2019-01-21T08:52:41.185Z,96453.28
2019-01-21T08:55:49.496Z,96453.72
2019-01-21T08:59:10.918Z,96449.67
2019-01-21T09:02:01.805Z,96452.48
2019-01-21T09:05:17.201Z,96454.03
2019-01-21T09:08:58.847Z,96451.75
2019-01-21T09:12:27.943Z,96449.17
2019-01-21T09:15:39.807Z,96453.61
2019-01-21T09:19:00.889Z,96449.35
2019-01-21T09:22:05.125Z,96454.89
2019-01-21T09:25:05.997Z,96453.25
2019-01-21T09:28:19.194Z,96455.69
2019-01-21T09:31:23.546Z,96452.05
2019-01-21T09:34:12.101Z,96453.06
2019-01-21T09:37:37.003Z,96443.08
2019-01-21T09:40:57.539Z,96446.47
2019-01-21T09:44:09.576Z,96445.23
2019-01-21T09:46:51.017Z,96452.50
2019-01-21T09:49:21.287Z,96452.43
2019-01-21T09:52:19.281Z,96450.19
2019-01-21T09:54:50.851Z,96451.61
2019-01-21T09:57:29.428Z,96453.52
2019-01-21T10:00:06.264Z,96445.42
2019-01-21T10:02:43.461Z,96450.13
2019-01-21T10:05:17.110Z,96447.96
2019-01-21T10:08:25.696Z,96448.13
2019-01-21T10:11:38.395Z,96442.10
2019-01-21T10:14:50.903Z,96438.64
2019-01-21T10:18:04.876Z,96430.84
2019-01-21T10:21:07.533Z,96433.08
2019-01-21T10:24:26.206Z,96430.05
2019-01-21T10:27:36.039Z,96435.34
2019-01-21T10:30:38.038Z,96425.59
2019-01-21T10:34:10.604Z,96422.31
2019-01-21T10:37:24.517Z,96423.95
2019-01-21T10:40:10.919Z,96419.95
2019-01-21T10:43:10.135Z,96417.38
2019-01-21T10:46:10.564Z,96417.20
2019-01-21T10:49:23.373Z,96407.00
2019-01-21T10:52:39.811Z,96403.66
2019-01-21T10:55:48.013Z,96410.25
2019-01-21T10:58:51.284Z,96407.20
2019-01-21T11:01:51.816Z,96398.59
2019-01-21T11:04:41.352Z,96397.13
2019-01-21T11:07:49.413Z,96390.41
2019-01-21T11:10:52.055Z,96396.02
2019-01-21T11:14:30.641Z,96389.89
2019-01-21T11:17:47.965Z,96382.86
2019-01-21T11:20:55.955Z,96391.45
2019-01-21T11:23:55.167Z,96387.66
2019-01-21T11:27:00.024Z,96386.72
2019-01-21T11:30:07.971Z,96385.73
2019-01-21T11:33:38.731Z,96381.71
2019-01-21T11:37:08.023Z,96376.77
2019-01-21T11:40:22.566Z,96370.29
2019-01-21T11:43:54.613Z,96359.27
2019-01-21T11:47:01.757Z,96356.33
2019-01-21T11:50:12.986Z,96353.77
2019-01-21T11:53:26.066Z,96343.58
2019-01-21T11:56:25.739Z,96338.78
2019-01-21T11:59:31.569Z,96344.61
2019-01-21T12:02:16.868Z,96346.38
2019-01-21T12:05:19.913Z,96339.95
2019-01-21T12:08:29.162Z,96337.19
2019-01-21T12:11:45.113Z,96341.69
2019-01-21T12:14:54.003Z,96342.19
2019-01-21T12:18:10.902Z,96341.93
2019-01-21T12:21:33.671Z,96336.45
2019-01-21T12:24:37.916Z,96328.30
2019-01-21T12:27:45.462Z,96331.80
2019-01-21T12:30:40.031Z,96330.77
2019-01-21T12:33:47.908Z,96325.67
2019-01-21T12:36:59.779Z,96330.78
2019-01-21T12:39:58.106Z,96320.71
2019-01-21T12:43:39.357Z,96328.83
2019-01-21T12:46:47.053Z,96318.38
2019-01-21T12:49:56.395Z,96312.09
2019-01-21T12:53:02.857Z,96306.17
2019-01-21T12:56:13.552Z,96305.24
2019-01-21T12:59:23.485Z,96299.03
2019-01-21T13:02:20.149Z,96304.42
2019-01-21T13:05:17.468Z,96294.05
2019-01-21T13:08:34.277Z,96291.42
2019-01-21T13:11:41.930Z,96289.75
2019-01-21T13:14:41.021Z,96289.05
2019-01-21T13:17:56.660Z,96290.53
2019-01-21T13:25:01.032Z,96279.51
2019-01-21T13:28:14.627Z,96273.34
2019-01-21T13:31:10.573Z,96269.09
2019-01-21T13:34:19.169Z,96260.40
2019-01-21T13:37:32.339Z,96259.23
2019-01-21T13:40:49.417Z,96254.34
2019-01-21T13:44:01.851Z,96253.70
2019-01-21T13:47:10.786Z,96244.48
2019-01-21T13:50:14.717Z,96242.67
2019-01-21T13:53:22.362Z,96233.34
2019-01-21T13:56:30.527Z,96234.30
2019-01-21T13:59:33.282Z,96222.36
2019-01-21T14:02:19.842Z,96221.36
2019-01-21T14:05:30.850Z,96214.56
2019-01-21T14:08:14.100Z,96208.11
2019-01-21T14:11:36.501Z,96207.79
2019-01-21T14:14:27.377Z,96198.56
2019-01-21T14:17:50.679Z,96195.38
2019-01-21T14:20:33.519Z,96196.39
2019-01-21T14:23:34.841Z,96190.27
2019-01-21T14:26:42.024Z,96198.23
2019-01-21T14:29:27.496Z,96206.41
2019-01-21T14:32:35.981Z,96207.31
2019-01-21T14:35:42.033Z,96203.66
2019-01-21T14:38:44.700Z,96204.58
2019-01-21T14:41:57.678Z,96203.65
2019-01-21T14:45:03.066Z,96206.66
2019-01-21T14:48:19.481Z,96209.45
2019-01-21T14:51:42.952Z,96206.20
2019-01-21T14:54:35.449Z,96203.75
2019-01-21T14:57:43.126Z,96212.61
2019-01-21T15:00:54.969Z,96218.55
2019-01-21T15:04:16.013Z,96223.47
2019-01-21T15:07:25.867Z,96216.59
2019-01-21T15:10:24.478Z,96214.50
2019-01-21T15:13:38.935Z,96205.39
2019-01-21T15:16:49.579Z,96210.14
2019-01-21T15:20:30.330Z,96217.19
2019-01-21T15:23:22.464Z,96208.51
2019-01-21T15:26:52.043Z,96215.55
2019-01-21T15:30:10.266Z,96204.61
2019-01-21T15:33:10.249Z,96208.39
2019-01-21T15:36:38.705Z,96206.65
2019-01-21T15:40:02.279Z,96198.47
2019-01-21T15:42:50.744Z,96193.90
2019-01-21T15:46:03.228Z,96207.06
2019-01-21T15:48:59.362Z,96204.61
2019-01-21T15:52:00.016Z,96207.58
2019-01-21T15:54:47.268Z,96219.02
2019-01-21T15:57:29.567Z,96213.41
2019-01-21T16:00:56.403Z,96222.89
2019-01-21T16:04:21.062Z,96216.84
2019-01-21T16:07:27.013Z,96207.41
2019-01-21T16:10:41.192Z,96205.13
2019-01-21T16:13:43.742Z,96208.25
2019-01-21T16:17:20.277Z,96201.06
2019-01-21T16:20:25.035Z,96209.12
2019-01-21T16:23:48.566Z,96212.84
2019-01-21T16:26:37.720Z,96212.84
2019-01-21T16:29:42.554Z,96204.00
2019-01-21T16:32:57.508Z,96205.52
2019-01-21T16:35:52.231Z,96202.89
2019-01-21T16:39:00.714Z,96205.52
2019-01-21T16:42:13.363Z,96203.56
2019-01-21T16:44:45.616Z,96201.61
2019-01-21T16:47:19.187Z,96197.13
2019-01-21T16:49:56.903Z,96189.97
2019-01-21T16:52:29.218Z,96191.28
2019-01-21T16:55:03.311Z,96187.53
2019-01-21T16:57:34.482Z,96191.31
2019-01-21T17:00:15.353Z,96190.32
2019-01-21T17:02:49.217Z,96195.56
2019-01-21T17:05:20.504Z,96192.94
2019-01-21T17:07:51.762Z,96192.47
2019-01-21T17:10:26.451Z,96191.31
2019-01-21T17:12:57.428Z,96200.80
2019-01-21T17:15:28.160Z,96194.25
2019-01-21T17:17:59.443Z,96187.20
2019-01-21T17:20:30.483Z,96179.67
2019-01-21T17:23:04.357Z,96180.83
2019-01-21T17:25:38.353Z,96193.75
2019-01-21T17:28:12.096Z,96195.06
2019-01-21T17:30:44.797Z,96198.99
2019-01-21T17:33:20.019Z,96185.08
2019-01-21T17:36:04.760Z,96183.30
2019-01-21T17:38:34.937Z,96185.43
2019-01-21T17:41:06.561Z,96194.09
2019-01-21T17:43:38.136Z,96186.62
2019-01-21T17:46:09.249Z,96183.69
2019-01-21T17:48:48.717Z,96184.00
2019-01-21T17:51:24.159Z,96183.86
2019-01-21T17:53:55.348Z,96173.55
2019-01-21T17:56:30.787Z,96176.67
2019-01-21T17:59:04.250Z,96176.34
2019-01-21T18:01:39.229Z,96177.66
2019-01-21T18:04:10.856Z,96173.79
2019-01-21T18:06:42.145Z,96172.80
2019-01-21T18:09:33.700Z,96169.36
2019-01-21T18:12:04.738Z,96177.08
2019-01-21T18:14:42.465Z,96178.06
2019-01-21T18:17:14.906Z,96177.42
2019-01-21T18:19:48.362Z,96170.70
2019-01-21T18:22:27.425Z,96171.69
2019-01-21T18:25:06.958Z,96171.20
2019-01-21T18:27:37.781Z,96171.52
2019-01-21T18:30:12.059Z,96164.82
2019-01-21T18:32:43.130Z,96163.89
2019-01-21T18:35:18.712Z,96154.09
2019-01-21T18:37:54.455Z,96150.97
2019-01-21T18:40:28.886Z,96147.22
2019-01-21T18:43:03.067Z,96148.53
2019-01-21T18:45:34.097Z,96141.02
2019-01-21T18:48:07.265Z,96141.20
2019-01-21T18:50:51.562Z,96137.27
2019-01-21T18:53:24.063Z,96137.16
2019-01-21T18:55:55.013Z,96127.03
2019-01-21T18:58:31.660Z,96132.93
2019-01-21T19:01:04.747Z,96128.36
2019-01-21T19:03:35.571Z,96128.25
2019-01-21T19:06:09.910Z,96128.25
2019-01-21T19:08:41.111Z,96131.36
2019-01-21T19:11:32.153Z,96131.21
2019-01-21T19:14:18.156Z,96127.95
2019-01-21T19:16:57.692Z,96126.17
2019-01-21T19:19:31.580Z,96120.99
2019-01-21T19:22:07.681Z,96120.17
2019-01-21T19:24:42.963Z,96118.23
2019-01-21T19:27:13.974Z,96128.05
2019-01-21T19:29:46.875Z,96132.62
2019-01-21T19:32:21.312Z,96122.37
2019-01-21T19:34:54.115Z,96114.60
2019-01-21T19:37:29.540Z,96117.91
2019-01-21T19:40:00.830Z,96117.75
2019-01-21T19:42:31.837Z,96111.27
2019-01-21T19:45:02.641Z,96117.81
2019-01-21T19:47:39.432Z,96127.85
2019-01-21T19:50:15.986Z,96120.34
2019-01-21T19:52:47.040Z,96125.58
2019-01-21T19:55:24.611Z,96120.17
2019-01-21T19:57:58.444Z,96116.08
2019-01-21T20:00:29.557Z,96114.99
2019-01-21T20:03:00.472Z,96116.53
2019-01-21T20:05:32.262Z,96121.28
2019-01-21T20:08:05.035Z,96119.55
2019-01-21T20:10:37.453Z,96111.92
2019-01-21T20:13:10.226Z,96116.23
2019-01-21T20:15:45.555Z,96118.36
2019-01-21T20:18:17.914Z,96121.66
2019-01-21T20:20:50.931Z,96127.06
2019-01-21T20:23:21.976Z,96129.67
2019-01-21T20:25:55.746Z,96127.47
2019-01-21T20:28:27.064Z,96139.56
2019-01-21T20:30:59.488Z,96143.83
2019-01-21T20:33:31.116Z,96152.19
2019-01-21T20:36:07.341Z,96154.02
2019-01-21T20:38:47.972Z,96163.14
2019-01-21T20:41:23.407Z,96164.34
2019-01-21T20:43:54.806Z,96162.88
2019-01-21T20:46:26.293Z,96165.84
2019-01-21T20:48:59.138Z,96166.97
2019-01-21T20:51:31.537Z,96167.30
2019-01-21T20:54:05.448Z,96156.21
2019-01-21T20:56:41.224Z,96153.92
2019-01-21T20:59:15.299Z,96154.73
2019-01-21T21:01:47.893Z,96147.73
2019-01-21T21:04:21.882Z,96148.70
2019-01-21T21:06:54.924Z,96147.42
2019-01-21T21:09:40.365Z,96132.76
2019-01-21T21:12:13.503Z,96128.70
2019-01-21T21:14:46.125Z,96128.04
2019-01-21T21:17:20.159Z,96130.83
2019-01-21T21:19:58.881Z,96130.01
2019-01-21T21:22:38.302Z,96132.27
2019-01-21T21:25:14.114Z,96140.09
2019-01-21T21:27:49.781Z,96138.31
2019-01-21T21:30:31.998Z,96136.99
2019-01-21T21:33:03.606Z,96134.05
2019-01-21T21:35:37.888Z,96129.83
2019-01-21T21:38:09.419Z,96137.15
2019-01-21T21:40:40.656Z,96129.19
2019-01-21T21:43:11.991Z,96130.16
2019-01-21T21:45:44.271Z,96130.16
2019-01-21T21:48:15.236Z,96126.38
2019-01-21T21:50:47.201Z,96127.02
2019-01-21T21:53:20.599Z,96125.53
2019-01-21T21:56:01.015Z,96122.59
2019-01-21T21:58:35.518Z,96119.64
2019-01-21T22:01:07.044Z,96111.78
2019-01-21T22:03:38.778Z,96115.54
2019-01-21T22:06:10.306Z,96107.83
2019-01-21T22:08:47.646Z,96110.88
2019-01-21T22:11:24.882Z,96104.38
2019-01-21T22:14:02.929Z,96101.45
2019-01-21T22:16:34.861Z,96100.63
2019-01-21T22:19:06.801Z,96105.50
2019-01-21T22:21:37.833Z,96105.47
2019-01-21T22:24:09.574Z,96100.90
2019-01-21T22:26:46.358Z,96104.13
2019-01-21T22:29:17.343Z,96105.62
2019-01-21T22:31:48.531Z,96107.03
2019-01-21T22:34:19.722Z,96093.17
2019-01-21T22:36:50.481Z,96093.11
2019-01-21T22:39:21.378Z,96091.17
2019-01-21T22:41:56.403Z,96083.04
2019-01-21T22:44:27.418Z,96079.14
2019-01-21T22:46:58.358Z,96080.25
2019-01-21T22:49:41.630Z,96076.90
2019-01-21T22:52:16.413Z,96067.95
2019-01-21T22:55:02.582Z,96069.69
2019-01-21T22:57:39.910Z,96070.80
2019-01-21T23:01:06.804Z,96064.48
2019-01-21T23:03:37.771Z,96060.40
2019-01-21T23:06:10.228Z,96050.01
2019-01-21T23:08:45.235Z,96048.38
2019-01-21T23:11:15.971Z,96044.59
2019-01-21T23:13:47.414Z,96041.98
2019-01-21T23:16:18.930Z,96040.83
2019-01-21T23:18:51.016Z,96034.34
2019-01-21T23:21:22.327Z,96031.59
2019-01-21T23:23:54.601Z,96028.04
2019-01-21T23:26:25.458Z,96028.52
2019-01-21T23:28:56.553Z,96035.16
2019-01-21T23:31:28.815Z,96032.42
2019-01-21T23:33:59.699Z,96034.23
2019-01-21T23:36:30.534Z,96032.79
2019-01-21T23:39:02.145Z,96028.23
2019-01-21T23:41:34.482Z,96028.67
2019-01-21T23:44:09.558Z,96018.61
2019-01-21T23:46:44.169Z,96019.62
2019-01-21T23:49:18.375Z,96014.91
2019-01-21T23:51:52.395Z,96020.28
2019-01-21T23:54:23.316Z,96011.20
2019-01-21T23:56:54.486Z,96012.61
2019-01-21T23:59:25.383Z,96003.18
